sensor_id;sensor_type;location;lat;lon;timestamp;temperature;humidity
18287;DHT22;9269;50.838;12.094;2022-09-29T00:02:14;11.70;50.00
18287;DHT22;9269;50.838;12.094;2022-09-29T00:04:48;11.70;49.70
18287;DHT22;9269;50.838;12.094;2022-09-29T00:07:19;11.70;50.10
18287;DHT22;9269;50.838;12.094;2022-09-29T00:09:56;11.60;50.10
18287;DHT22;9269;50.838;12.094;2022-09-29T00:12:31;11.50;50.00
18287;DHT22;9269;50.838;12.094;2022-09-29T00:15:01;11.60;50.10
18287;DHT22;9269;50.838;12.094;2022-09-29T00:17:31;11.50;49.90
18287;DHT22;9269;50.838;12.094;2022-09-29T00:20:01;11.60;49.90
18287;DHT22;9269;50.838;12.094;2022-09-29T00:22:32;11.50;49.80
18287;DHT22;9269;50.838;12.094;2022-09-29T00:25:01;11.40;49.60
18287;DHT22;9269;50.838;12.094;2022-09-29T00:27:31;11.40;49.80
18287;DHT22;9269;50.838;12.094;2022-09-29T00:30:00;11.40;49.70
18287;DHT22;9269;50.838;12.094;2022-09-29T00:32:29;11.50;49.50
18287;DHT22;9269;50.838;12.094;2022-09-29T00:34:59;11.40;49.30
18287;DHT22;9269;50.838;12.094;2022-09-29T00:37:34;11.30;49.80
18287;DHT22;9269;50.838;12.094;2022-09-29T00:40:04;11.50;49.60
18287;DHT22;9269;50.838;12.094;2022-09-29T00:42:34;11.30;49.20
18287;DHT22;9269;50.838;12.094;2022-09-29T00:45:21;11.40;49.40
18287;DHT22;9269;50.838;12.094;2022-09-29T00:48:03;11.40;49.70
18287;DHT22;9269;50.838;12.094;2022-09-29T00:50:39;11.40;49.60
18287;DHT22;9269;50.838;12.094;2022-09-29T00:53:13;11.30;49.70
18287;DHT22;9269;50.838;12.094;2022-09-29T00:55:51;11.30;49.50
18287;DHT22;9269;50.838;12.094;2022-09-29T00:58:27;11.20;49.90
18287;DHT22;9269;50.838;12.094;2022-09-29T01:00:57;11.40;49.80
18287;DHT22;9269;50.838;12.094;2022-09-29T01:03:29;11.20;49.60
18287;DHT22;9269;50.838;12.094;2022-09-29T01:06:02;11.10;50.10
18287;DHT22;9269;50.838;12.094;2022-09-29T01:08:41;11.20;50.00
18287;DHT22;9269;50.838;12.094;2022-09-29T01:11:17;11.20;49.80
18287;DHT22;9269;50.838;12.094;2022-09-29T01:13:48;11.20;50.50
18287;DHT22;9269;50.838;12.094;2022-09-29T01:16:18;11.10;49.80
18287;DHT22;9269;50.838;12.094;2022-09-29T01:18:50;11.10;50.30
18287;DHT22;9269;50.838;12.094;2022-09-29T01:21:47;11.10;50.70
18287;DHT22;9269;50.838;12.094;2022-09-29T01:24:58;11.10;51.10
18287;DHT22;9269;50.838;12.094;2022-09-29T01:27:48;11.10;51.20
18287;DHT22;9269;50.838;12.094;2022-09-29T01:30:22;11.10;51.70
18287;DHT22;9269;50.838;12.094;2022-09-29T01:33:14;11.10;51.70
18287;DHT22;9269;50.838;12.094;2022-09-29T01:35:54;11.10;51.80
18287;DHT22;9269;50.838;12.094;2022-09-29T01:38:50;11.10;51.70
18287;DHT22;9269;50.838;12.094;2022-09-29T01:41:37;11.10;51.80
18287;DHT22;9269;50.838;12.094;2022-09-29T01:44:30;11.10;52.20
18287;DHT22;9269;50.838;12.094;2022-09-29T01:47:23;11.10;52.10
18287;DHT22;9269;50.838;12.094;2022-09-29T01:50:18;11.20;52.00
18287;DHT22;9269;50.838;12.094;2022-09-29T01:53:11;11.10;52.00
18287;DHT22;9269;50.838;12.094;2022-09-29T01:56:04;11.00;51.70
18287;DHT22;9269;50.838;12.094;2022-09-29T01:58:38;11.20;51.70
18287;DHT22;9269;50.838;12.094;2022-09-29T02:01:10;11.10;51.60
18287;DHT22;9269;50.838;12.094;2022-09-29T02:04:06;11.10;51.90
18287;DHT22;9269;50.838;12.094;2022-09-29T02:06:40;11.20;51.70
18287;DHT22;9269;50.838;12.094;2022-09-29T02:09:24;11.10;51.70
18287;DHT22;9269;50.838;12.094;2022-09-29T02:11:57;11.10;51.40
18287;DHT22;9269;50.838;12.094;2022-09-29T02:14:29;11.20;51.20
18287;DHT22;9269;50.838;12.094;2022-09-29T02:17:04;11.30;51.30
18287;DHT22;9269;50.838;12.094;2022-09-29T02:19:36;11.20;51.30
18287;DHT22;9269;50.838;12.094;2022-09-29T02:22:07;11.20;51.10
18287;DHT22;9269;50.838;12.094;2022-09-29T02:24:35;11.30;51.10
18287;DHT22;9269;50.838;12.094;2022-09-29T02:27:04;11.40;51.20
18287;DHT22;9269;50.838;12.094;2022-09-29T02:29:33;11.30;51.30
18287;DHT22;9269;50.838;12.094;2022-09-29T02:32:04;11.30;51.40
18287;DHT22;9269;50.838;12.094;2022-09-29T02:34:35;11.30;51.30
18287;DHT22;9269;50.838;12.094;2022-09-29T02:37:25;11.40;51.90
18287;DHT22;9269;50.838;12.094;2022-09-29T02:40:03;11.30;51.20
18287;DHT22;9269;50.838;12.094;2022-09-29T02:42:39;11.40;51.70
18287;DHT22;9269;50.838;12.094;2022-09-29T02:45:22;11.20;51.40
18287;DHT22;9269;50.838;12.094;2022-09-29T02:48:09;11.30;51.50
18287;DHT22;9269;50.838;12.094;2022-09-29T02:51:12;11.30;51.70
18287;DHT22;9269;50.838;12.094;2022-09-29T02:53:54;11.30;51.50
18287;DHT22;9269;50.838;12.094;2022-09-29T02:56:32;11.30;51.50
18287;DHT22;9269;50.838;12.094;2022-09-29T02:59:07;11.30;51.50
18287;DHT22;9269;50.838;12.094;2022-09-29T03:01:47;11.40;51.60
18287;DHT22;9269;50.838;12.094;2022-09-29T03:04:17;11.40;51.60
18287;DHT22;9269;50.838;12.094;2022-09-29T03:06:46;11.40;51.40
18287;DHT22;9269;50.838;12.094;2022-09-29T03:09:16;11.40;51.40
18287;DHT22;9269;50.838;12.094;2022-09-29T03:11:45;11.40;51.40
18287;DHT22;9269;50.838;12.094;2022-09-29T03:14:13;11.50;51.50
18287;DHT22;9269;50.838;12.094;2022-09-29T03:16:42;11.40;51.80
18287;DHT22;9269;50.838;12.094;2022-09-29T03:19:10;11.30;51.80
18287;DHT22;9269;50.838;12.094;2022-09-29T03:21:39;11.30;51.70
18287;DHT22;9269;50.838;12.094;2022-09-29T03:24:07;11.40;51.60
18287;DHT22;9269;50.838;12.094;2022-09-29T03:26:37;11.40;51.90
18287;DHT22;9269;50.838;12.094;2022-09-29T03:29:06;11.30;51.70
18287;DHT22;9269;50.838;12.094;2022-09-29T03:31:34;11.40;51.70
18287;DHT22;9269;50.838;12.094;2022-09-29T03:34:03;11.30;51.40
18287;DHT22;9269;50.838;12.094;2022-09-29T03:36:31;11.40;51.60
18287;DHT22;9269;50.838;12.094;2022-09-29T03:39:00;11.40;51.90
18287;DHT22;9269;50.838;12.094;2022-09-29T03:41:28;11.40;51.60
18287;DHT22;9269;50.838;12.094;2022-09-29T03:43:58;11.40;51.60
18287;DHT22;9269;50.838;12.094;2022-09-29T03:46:27;11.30;52.00
18287;DHT22;9269;50.838;12.094;2022-09-29T03:48:55;11.40;51.70
18287;DHT22;9269;50.838;12.094;2022-09-29T03:51:24;11.40;51.70
18287;DHT22;9269;50.838;12.094;2022-09-29T03:53:53;11.20;51.80
18287;DHT22;9269;50.838;12.094;2022-09-29T03:56:22;11.30;51.90
18287;DHT22;9269;50.838;12.094;2022-09-29T03:58:50;11.30;52.00
18287;DHT22;9269;50.838;12.094;2022-09-29T04:01:20;11.40;52.00
18287;DHT22;9269;50.838;12.094;2022-09-29T04:03:49;11.30;52.00
18287;DHT22;9269;50.838;12.094;2022-09-29T04:06:17;11.30;51.90
18287;DHT22;9269;50.838;12.094;2022-09-29T04:08:47;11.40;52.00
18287;DHT22;9269;50.838;12.094;2022-09-29T04:11:16;11.40;51.90
18287;DHT22;9269;50.838;12.094;2022-09-29T04:13:44;11.40;51.80
18287;DHT22;9269;50.838;12.094;2022-09-29T04:16:13;11.30;51.90
18287;DHT22;9269;50.838;12.094;2022-09-29T04:18:44;11.60;52.00
18287;DHT22;9269;50.838;12.094;2022-09-29T04:21:13;11.40;52.00
18287;DHT22;9269;50.838;12.094;2022-09-29T04:23:43;11.40;52.00
18287;DHT22;9269;50.838;12.094;2022-09-29T04:26:12;11.30;52.10
18287;DHT22;9269;50.838;12.094;2022-09-29T04:28:40;11.40;52.40
18287;DHT22;9269;50.838;12.094;2022-09-29T04:31:11;11.50;52.20
18287;DHT22;9269;50.838;12.094;2022-09-29T04:33:40;11.40;52.50
18287;DHT22;9269;50.838;12.094;2022-09-29T04:36:10;11.30;52.10
18287;DHT22;9269;50.838;12.094;2022-09-29T04:38:39;11.50;52.50
18287;DHT22;9269;50.838;12.094;2022-09-29T04:41:08;11.40;52.40
18287;DHT22;9269;50.838;12.094;2022-09-29T04:43:36;11.40;52.50
18287;DHT22;9269;50.838;12.094;2022-09-29T04:46:06;11.40;52.10
18287;DHT22;9269;50.838;12.094;2022-09-29T04:48:35;11.50;52.20
18287;DHT22;9269;50.838;12.094;2022-09-29T04:51:04;11.50;51.90
18287;DHT22;9269;50.838;12.094;2022-09-29T04:53:36;11.50;52.40
18287;DHT22;9269;50.838;12.094;2022-09-29T04:56:06;11.50;52.10
18287;DHT22;9269;50.838;12.094;2022-09-29T04:58:35;11.50;52.00
18287;DHT22;9269;50.838;12.094;2022-09-29T05:01:06;11.50;52.50
18287;DHT22;9269;50.838;12.094;2022-09-29T05:03:34;11.60;52.20
18287;DHT22;9269;50.838;12.094;2022-09-29T05:06:03;11.70;52.20
18287;DHT22;9269;50.838;12.094;2022-09-29T05:08:32;11.70;52.30
18287;DHT22;9269;50.838;12.094;2022-09-29T05:11:04;11.60;51.90
18287;DHT22;9269;50.838;12.094;2022-09-29T05:13:35;11.80;52.10
18287;DHT22;9269;50.838;12.094;2022-09-29T05:16:04;11.70;52.20
18287;DHT22;9269;50.838;12.094;2022-09-29T05:18:33;11.70;52.30
18287;DHT22;9269;50.838;12.094;2022-09-29T05:21:02;11.60;52.50
18287;DHT22;9269;50.838;12.094;2022-09-29T05:23:51;11.70;52.70
18287;DHT22;9269;50.838;12.094;2022-09-29T05:26:21;11.60;52.50
18287;DHT22;9269;50.838;12.094;2022-09-29T05:28:50;11.80;52.50
18287;DHT22;9269;50.838;12.094;2022-09-29T05:31:18;11.70;52.60
18287;DHT22;9269;50.838;12.094;2022-09-29T05:33:47;11.70;52.70
18287;DHT22;9269;50.838;12.094;2022-09-29T05:36:16;11.70;53.10
18287;DHT22;9269;50.838;12.094;2022-09-29T05:38:44;11.70;53.00
18287;DHT22;9269;50.838;12.094;2022-09-29T05:41:13;11.80;53.00
18287;DHT22;9269;50.838;12.094;2022-09-29T05:43:43;11.70;52.80
18287;DHT22;9269;50.838;12.094;2022-09-29T05:46:12;11.70;53.10
18287;DHT22;9269;50.838;12.094;2022-09-29T05:48:44;11.90;53.00
18287;DHT22;9269;50.838;12.094;2022-09-29T05:51:15;11.90;53.00
18287;DHT22;9269;50.838;12.094;2022-09-29T05:53:49;11.90;53.00
18287;DHT22;9269;50.838;12.094;2022-09-29T05:56:19;11.90;53.30
18287;DHT22;9269;50.838;12.094;2022-09-29T05:58:50;11.90;53.30
18287;DHT22;9269;50.838;12.094;2022-09-29T06:01:20;11.90;52.80
18287;DHT22;9269;50.838;12.094;2022-09-29T06:03:49;11.80;53.40
18287;DHT22;9269;50.838;12.094;2022-09-29T06:06:19;11.90;53.10
18287;DHT22;9269;50.838;12.094;2022-09-29T06:08:49;11.80;53.20
18287;DHT22;9269;50.838;12.094;2022-09-29T06:11:19;12.00;53.40
18287;DHT22;9269;50.838;12.094;2022-09-29T06:13:50;11.80;53.40
18287;DHT22;9269;50.838;12.094;2022-09-29T06:16:21;11.80;53.70
18287;DHT22;9269;50.838;12.094;2022-09-29T06:18:51;11.90;53.50
18287;DHT22;9269;50.838;12.094;2022-09-29T06:21:22;11.80;53.30
18287;DHT22;9269;50.838;12.094;2022-09-29T06:23:53;11.80;53.40
18287;DHT22;9269;50.838;12.094;2022-09-29T06:26:23;11.70;53.50
18287;DHT22;9269;50.838;12.094;2022-09-29T06:28:54;11.80;53.60
18287;DHT22;9269;50.838;12.094;2022-09-29T06:31:24;11.80;53.20
18287;DHT22;9269;50.838;12.094;2022-09-29T06:33:56;11.80;53.00
18287;DHT22;9269;50.838;12.094;2022-09-29T06:36:27;11.80;53.30
18287;DHT22;9269;50.838;12.094;2022-09-29T06:39:26;11.80;53.40
18287;DHT22;9269;50.838;12.094;2022-09-29T06:41:55;11.90;53.30
18287;DHT22;9269;50.838;12.094;2022-09-29T06:44:26;11.90;53.20
18287;DHT22;9269;50.838;12.094;2022-09-29T06:46:57;11.90;53.00
18287;DHT22;9269;50.838;12.094;2022-09-29T06:49:28;12.00;53.50
18287;DHT22;9269;50.838;12.094;2022-09-29T06:52:00;11.90;53.30
18287;DHT22;9269;50.838;12.094;2022-09-29T06:54:45;12.20;53.70
18287;DHT22;9269;50.838;12.094;2022-09-29T06:57:13;12.10;53.50
18287;DHT22;9269;50.838;12.094;2022-09-29T06:59:43;12.20;53.60
18287;DHT22;9269;50.838;12.094;2022-09-29T07:02:12;12.30;53.90
18287;DHT22;9269;50.838;12.094;2022-09-29T07:04:41;12.30;53.90
18287;DHT22;9269;50.838;12.094;2022-09-29T07:07:09;12.40;53.70
18287;DHT22;9269;50.838;12.094;2022-09-29T07:09:38;12.50;54.20
18287;DHT22;9269;50.838;12.094;2022-09-29T07:12:08;12.50;53.80
18287;DHT22;9269;50.838;12.094;2022-09-29T07:14:38;12.70;53.60
18287;DHT22;9269;50.838;12.094;2022-09-29T07:17:08;12.70;52.50
18287;DHT22;9269;50.838;12.094;2022-09-29T07:19:37;12.80;52.50
18287;DHT22;9269;50.838;12.094;2022-09-29T07:22:06;13.00;52.70
18287;DHT22;9269;50.838;12.094;2022-09-29T07:24:35;13.10;52.70
18287;DHT22;9269;50.838;12.094;2022-09-29T07:27:04;13.20;52.70
18287;DHT22;9269;50.838;12.094;2022-09-29T07:29:33;13.30;52.60
18287;DHT22;9269;50.838;12.094;2022-09-29T07:32:01;13.40;52.90
18287;DHT22;9269;50.838;12.094;2022-09-29T07:34:32;13.50;52.90
18287;DHT22;9269;50.838;12.094;2022-09-29T07:37:00;13.50;53.00
18287;DHT22;9269;50.838;12.094;2022-09-29T07:39:29;13.50;52.80
18287;DHT22;9269;50.838;12.094;2022-09-29T07:41:57;13.50;53.00
18287;DHT22;9269;50.838;12.094;2022-09-29T07:44:26;13.60;53.00
18287;DHT22;9269;50.838;12.094;2022-09-29T07:46:56;13.70;52.80
18287;DHT22;9269;50.838;12.094;2022-09-29T07:49:24;13.80;52.60
18287;DHT22;9269;50.838;12.094;2022-09-29T07:51:54;14.00;52.80
18287;DHT22;9269;50.838;12.094;2022-09-29T07:54:23;14.20;52.30
18287;DHT22;9269;50.838;12.094;2022-09-29T07:56:56;14.30;52.60
18287;DHT22;9269;50.838;12.094;2022-09-29T07:59:27;14.50;52.60
18287;DHT22;9269;50.838;12.094;2022-09-29T08:01:55;14.60;52.20
18287;DHT22;9269;50.838;12.094;2022-09-29T08:04:25;14.70;52.20
18287;DHT22;9269;50.838;12.094;2022-09-29T08:06:55;14.90;52.10
18287;DHT22;9269;50.838;12.094;2022-09-29T08:09:23;15.00;52.10
18287;DHT22;9269;50.838;12.094;2022-09-29T08:12:05;15.10;51.70
18287;DHT22;9269;50.838;12.094;2022-09-29T08:14:34;15.20;51.20
18287;DHT22;9269;50.838;12.094;2022-09-29T08:17:10;15.30;51.30
18287;DHT22;9269;50.838;12.094;2022-09-29T08:19:38;15.40;51.20
18287;DHT22;9269;50.838;12.094;2022-09-29T08:22:08;15.50;50.00
18287;DHT22;9269;50.838;12.094;2022-09-29T08:24:36;15.60;49.90
18287;DHT22;9269;50.838;12.094;2022-09-29T08:27:06;15.80;49.50
18287;DHT22;9269;50.838;12.094;2022-09-29T08:29:43;15.90;49.40
18287;DHT22;9269;50.838;12.094;2022-09-29T08:32:13;15.90;49.50
18287;DHT22;9269;50.838;12.094;2022-09-29T08:34:45;16.00;49.20
18287;DHT22;9269;50.838;12.094;2022-09-29T08:37:15;16.10;48.40
18287;DHT22;9269;50.838;12.094;2022-09-29T08:39:44;16.20;48.20
18287;DHT22;9269;50.838;12.094;2022-09-29T08:42:18;16.20;48.40
18287;DHT22;9269;50.838;12.094;2022-09-29T08:44:50;16.30;48.60
18287;DHT22;9269;50.838;12.094;2022-09-29T08:47:38;16.40;48.50
18287;DHT22;9269;50.838;12.094;2022-09-29T08:50:21;16.50;48.10
18287;DHT22;9269;50.838;12.094;2022-09-29T08:52:57;16.60;48.30
18287;DHT22;9269;50.838;12.094;2022-09-29T08:55:34;16.80;47.80
18287;DHT22;9269;50.838;12.094;2022-09-29T08:58:09;16.90;47.10
18287;DHT22;9269;50.838;12.094;2022-09-29T09:00:44;17.10;47.30
18287;DHT22;9269;50.838;12.094;2022-09-29T09:03:23;17.20;47.00
18287;DHT22;9269;50.838;12.094;2022-09-29T09:06:09;17.30;46.50
18287;DHT22;9269;50.838;12.094;2022-09-29T09:08:54;17.50;46.20
18287;DHT22;9269;50.838;12.094;2022-09-29T09:11:35;17.50;46.20
18287;DHT22;9269;50.838;12.094;2022-09-29T09:14:17;17.70;46.30
18287;DHT22;9269;50.838;12.094;2022-09-29T09:16:53;17.80;46.40
18287;DHT22;9269;50.838;12.094;2022-09-29T09:19:40;17.90;45.80
18287;DHT22;9269;50.838;12.094;2022-09-29T09:22:19;18.10;45.30
18287;DHT22;9269;50.838;12.094;2022-09-29T09:24:56;18.20;44.70
18287;DHT22;9269;50.838;12.094;2022-09-29T09:27:30;18.20;44.50
18287;DHT22;9269;50.838;12.094;2022-09-29T09:30:03;18.30;44.30
18287;DHT22;9269;50.838;12.094;2022-09-29T09:32:39;18.40;44.00
18287;DHT22;9269;50.838;12.094;2022-09-29T09:35:31;18.50;43.70
18287;DHT22;9269;50.838;12.094;2022-09-29T09:38:07;18.70;43.60
18287;DHT22;9269;50.838;12.094;2022-09-29T09:40:41;18.80;43.00
18287;DHT22;9269;50.838;12.094;2022-09-29T09:43:15;18.80;42.50
18287;DHT22;9269;50.838;12.094;2022-09-29T09:45:48;18.90;42.40
18287;DHT22;9269;50.838;12.094;2022-09-29T09:48:22;19.00;41.50
18287;DHT22;9269;50.838;12.094;2022-09-29T09:51:00;19.10;41.40
18287;DHT22;9269;50.838;12.094;2022-09-29T09:53:34;19.20;42.50
18287;DHT22;9269;50.838;12.094;2022-09-29T09:56:14;19.30;41.20
18287;DHT22;9269;50.838;12.094;2022-09-29T09:59:11;19.50;40.70
18287;DHT22;9269;50.838;12.094;2022-09-29T10:01:42;19.60;40.90
18287;DHT22;9269;50.838;12.094;2022-09-29T10:04:12;19.70;41.00
18287;DHT22;9269;50.838;12.094;2022-09-29T10:06:40;19.80;40.40
18287;DHT22;9269;50.838;12.094;2022-09-29T10:09:15;19.90;40.30
18287;DHT22;9269;50.838;12.094;2022-09-29T10:11:44;20.10;39.00
18287;DHT22;9269;50.838;12.094;2022-09-29T10:14:15;20.20;39.00
18287;DHT22;9269;50.838;12.094;2022-09-29T10:16:50;20.20;38.90
18287;DHT22;9269;50.838;12.094;2022-09-29T10:19:21;20.40;38.90
18287;DHT22;9269;50.838;12.094;2022-09-29T10:21:50;20.50;37.80
18287;DHT22;9269;50.838;12.094;2022-09-29T10:24:26;20.60;37.90
18287;DHT22;9269;50.838;12.094;2022-09-29T10:26:59;20.80;38.20
18287;DHT22;9269;50.838;12.094;2022-09-29T10:29:33;20.90;36.30
18287;DHT22;9269;50.838;12.094;2022-09-29T10:32:05;20.90;36.30
18287;DHT22;9269;50.838;12.094;2022-09-29T10:34:36;20.90;35.60
18287;DHT22;9269;50.838;12.094;2022-09-29T10:37:18;21.00;35.50
18287;DHT22;9269;50.838;12.094;2022-09-29T10:39:50;21.00;35.20
18287;DHT22;9269;50.838;12.094;2022-09-29T10:42:35;21.10;35.00
18287;DHT22;9269;50.838;12.094;2022-09-29T10:45:11;21.20;35.00
18287;DHT22;9269;50.838;12.094;2022-09-29T10:47:41;21.40;34.80
18287;DHT22;9269;50.838;12.094;2022-09-29T10:50:14;21.40;35.30
18287;DHT22;9269;50.838;12.094;2022-09-29T10:52:46;21.30;33.60
18287;DHT22;9269;50.838;12.094;2022-09-29T10:55:18;21.20;33.20
18287;DHT22;9269;50.838;12.094;2022-09-29T10:57:49;21.10;33.40
18287;DHT22;9269;50.838;12.094;2022-09-29T11:00:27;21.00;34.20
18287;DHT22;9269;50.838;12.094;2022-09-29T11:03:02;20.90;34.80
18287;DHT22;9269;50.838;12.094;2022-09-29T11:05:32;20.90;34.00
18287;DHT22;9269;50.838;12.094;2022-09-29T11:08:01;20.90;33.90
18287;DHT22;9269;50.838;12.094;2022-09-29T11:10:32;20.80;35.40
18287;DHT22;9269;50.838;12.094;2022-09-29T11:13:35;20.60;35.80
18287;DHT22;9269;50.838;12.094;2022-09-29T11:16:13;20.60;35.30
18287;DHT22;9269;50.838;12.094;2022-09-29T11:18:44;20.50;34.50
18287;DHT22;9269;50.838;12.094;2022-09-29T11:21:33;20.50;34.80
18287;DHT22;9269;50.838;12.094;2022-09-29T11:24:08;20.70;34.40
18287;DHT22;9269;50.838;12.094;2022-09-29T11:26:44;20.90;33.60
18287;DHT22;9269;50.838;12.094;2022-09-29T11:29:32;20.80;34.00
18287;DHT22;9269;50.838;12.094;2022-09-29T11:32:16;20.80;34.30
18287;DHT22;9269;50.838;12.094;2022-09-29T11:35:06;20.60;34.80
18287;DHT22;9269;50.838;12.094;2022-09-29T11:37:50;20.40;34.60
18287;DHT22;9269;50.838;12.094;2022-09-29T11:40:30;20.40;34.90
18287;DHT22;9269;50.838;12.094;2022-09-29T11:43:13;20.30;34.30
18287;DHT22;9269;50.838;12.094;2022-09-29T11:45:59;20.30;34.90
18287;DHT22;9269;50.838;12.094;2022-09-29T11:48:55;20.20;35.10
18287;DHT22;9269;50.838;12.094;2022-09-29T11:51:41;20.10;34.90
18287;DHT22;9269;50.838;12.094;2022-09-29T11:54:28;20.10;34.90
18287;DHT22;9269;50.838;12.094;2022-09-29T11:57:01;20.10;35.20
18287;DHT22;9269;50.838;12.094;2022-09-29T11:59:46;20.10;34.30
18287;DHT22;9269;50.838;12.094;2022-09-29T12:05:23;20.10;34.90
18287;DHT22;9269;50.838;12.094;2022-09-29T12:08:04;20.20;35.40
18287;DHT22;9269;50.838;12.094;2022-09-29T12:10:43;20.40;35.00
18287;DHT22;9269;50.838;12.094;2022-09-29T12:13:21;20.70;35.20
18287;DHT22;9269;50.838;12.094;2022-09-29T12:15:56;20.80;34.40
18287;DHT22;9269;50.838;12.094;2022-09-29T12:18:30;21.00;33.00
18287;DHT22;9269;50.838;12.094;2022-09-29T12:21:05;21.20;31.90
18287;DHT22;9269;50.838;12.094;2022-09-29T12:23:39;21.30;31.70
18287;DHT22;9269;50.838;12.094;2022-09-29T12:26:15;21.40;32.10
18287;DHT22;9269;50.838;12.094;2022-09-29T12:28:50;21.40;31.30
18287;DHT22;9269;50.838;12.094;2022-09-29T12:31:23;21.70;31.70
18287;DHT22;9269;50.838;12.094;2022-09-29T12:33:56;21.70;30.70
18287;DHT22;9269;50.838;12.094;2022-09-29T12:36:37;21.70;31.30
18287;DHT22;9269;50.838;12.094;2022-09-29T12:39:26;21.80;30.00
18287;DHT22;9269;50.838;12.094;2022-09-29T12:42:11;21.70;30.50
18287;DHT22;9269;50.838;12.094;2022-09-29T12:44:45;21.70;31.30
18287;DHT22;9269;50.838;12.094;2022-09-29T12:47:25;21.60;31.70
18287;DHT22;9269;50.838;12.094;2022-09-29T12:50:01;21.50;31.50
18287;DHT22;9269;50.838;12.094;2022-09-29T12:52:39;21.40;31.10
18287;DHT22;9269;50.838;12.094;2022-09-29T12:55:17;21.30;31.60
18287;DHT22;9269;50.838;12.094;2022-09-29T12:57:48;21.10;32.20
18287;DHT22;9269;50.838;12.094;2022-09-29T13:00:18;20.90;32.60
18287;DHT22;9269;50.838;12.094;2022-09-29T13:03:11;20.90;32.50
18287;DHT22;9269;50.838;12.094;2022-09-29T13:05:56;20.80;33.30
18287;DHT22;9269;50.838;12.094;2022-09-29T13:08:41;20.60;
18287;DHT22;9269;50.838;12.094;2022-09-29T13:11:51;20.50;34.10
18287;DHT22;9269;50.838;12.094;2022-09-29T13:17:30;20.30;34.60
18287;DHT22;9269;50.838;12.094;2022-09-29T13:20:32;20.30;34.30
18287;DHT22;9269;50.838;12.094;2022-09-29T13:26:32;20.20;34.00
18287;DHT22;9269;50.838;12.094;2022-09-29T13:29:08;20.10;34.00
18287;DHT22;9269;50.838;12.094;2022-09-29T13:31:38;20.00;33.70
18287;DHT22;9269;50.838;12.094;2022-09-29T13:34:21;19.90;33.60
18287;DHT22;9269;50.838;12.094;2022-09-29T13:36:53;19.90;33.70
18287;DHT22;9269;50.838;12.094;2022-09-29T13:39:32;19.80;33.80
18287;DHT22;9269;50.838;12.094;2022-09-29T13:46:25;19.80;34.10
18287;DHT22;9269;50.838;12.094;2022-09-29T13:49:02;19.80;34.20
18287;DHT22;9269;50.838;12.094;2022-09-29T13:51:49;19.60;34.30
18287;DHT22;9269;50.838;12.094;2022-09-29T13:54:29;19.50;33.70
18287;DHT22;9269;50.838;12.094;2022-09-29T13:59:45;19.30;33.00
18287;DHT22;9269;50.838;12.094;2022-09-29T14:02:24;19.20;33.00
18287;DHT22;9269;50.838;12.094;2022-09-29T14:04:56;19.10;33.10
18287;DHT22;9269;50.838;12.094;2022-09-29T14:07:38;19.10;32.90
18287;DHT22;9269;50.838;12.094;2022-09-29T14:10:19;19.10;33.50
18287;DHT22;9269;50.838;12.094;2022-09-29T14:12:54;19.10;33.10
18287;DHT22;9269;50.838;12.094;2022-09-29T14:15:25;19.10;33.20
18287;DHT22;9269;50.838;12.094;2022-09-29T14:18:01;19.20;33.50
18287;DHT22;9269;50.838;12.094;2022-09-29T14:20:32;19.20;34.00
18287;DHT22;9269;50.838;12.094;2022-09-29T14:23:02;19.10;34.00
18287;DHT22;9269;50.838;12.094;2022-09-29T14:25:52;19.00;33.90
18287;DHT22;9269;50.838;12.094;2022-09-29T14:28:26;19.00;34.30
18287;DHT22;9269;50.838;12.094;2022-09-29T14:30:59;18.90;34.80
18287;DHT22;9269;50.838;12.094;2022-09-29T14:33:36;18.80;35.10
18287;DHT22;9269;50.838;12.094;2022-09-29T14:36:12;18.70;35.30
18287;DHT22;9269;50.838;12.094;2022-09-29T14:38:43;18.60;35.60
18287;DHT22;9269;50.838;12.094;2022-09-29T14:41:39;18.50;35.50
18287;DHT22;9269;50.838;12.094;2022-09-29T14:44:10;18.40;35.40
18287;DHT22;9269;50.838;12.094;2022-09-29T14:46:59;18.40;35.60
18287;DHT22;9269;50.838;12.094;2022-09-29T14:50:05;18.20;35.60
18287;DHT22;9269;50.838;12.094;2022-09-29T14:53:10;18.20;36.30
18287;DHT22;9269;50.838;12.094;2022-09-29T14:55:52;18.30;36.40
18287;DHT22;9269;50.838;12.094;2022-09-29T14:58:34;18.30;36.60
18287;DHT22;9269;50.838;12.094;2022-09-29T15:01:12;18.30;36.50
18287;DHT22;9269;50.838;12.094;2022-09-29T15:03:45;18.40;35.70
18287;DHT22;9269;50.838;12.094;2022-09-29T15:06:18;18.30;35.70
18287;DHT22;9269;50.838;12.094;2022-09-29T15:08:53;18.30;35.40
18287;DHT22;9269;50.838;12.094;2022-09-29T15:11:29;18.30;35.10
18287;DHT22;9269;50.838;12.094;2022-09-29T15:13:58;18.20;35.60
18287;DHT22;9269;50.838;12.094;2022-09-29T15:16:33;18.20;35.40
18287;DHT22;9269;50.838;12.094;2022-09-29T15:19:15;18.10;37.20
18287;DHT22;9269;50.838;12.094;2022-09-29T15:21:56;18.10;37.30
18287;DHT22;9269;50.838;12.094;2022-09-29T15:24:46;18.10;37.20
18287;DHT22;9269;50.838;12.094;2022-09-29T15:27:19;18.10;36.90
18287;DHT22;9269;50.838;12.094;2022-09-29T15:29:48;18.10;36.50
18287;DHT22;9269;50.838;12.094;2022-09-29T15:32:20;18.10;36.30
18287;DHT22;9269;50.838;12.094;2022-09-29T15:34:51;18.00;36.00
18287;DHT22;9269;50.838;12.094;2022-09-29T15:37:24;17.90;36.40
18287;DHT22;9269;50.838;12.094;2022-09-29T15:39:53;17.80;36.50
18287;DHT22;9269;50.838;12.094;2022-09-29T15:42:22;17.90;36.50
18287;DHT22;9269;50.838;12.094;2022-09-29T15:44:53;17.80;36.60
18287;DHT22;9269;50.838;12.094;2022-09-29T15:47:27;17.80;36.60
18287;DHT22;9269;50.838;12.094;2022-09-29T15:49:57;17.60;36.80
18287;DHT22;9269;50.838;12.094;2022-09-29T15:52:28;17.70;36.50
18287;DHT22;9269;50.838;12.094;2022-09-29T15:54:57;17.70;36.50
18287;DHT22;9269;50.838;12.094;2022-09-29T15:57:28;17.50;37.00
18287;DHT22;9269;50.838;12.094;2022-09-29T16:00:55;17.40;37.10
18287;DHT22;9269;50.838;12.094;2022-09-29T16:03:28;17.40;37.10
18287;DHT22;9269;50.838;12.094;2022-09-29T16:06:04;17.30;37.30
18287;DHT22;9269;50.838;12.094;2022-09-29T16:08:37;17.40;37.30
18287;DHT22;9269;50.838;12.094;2022-09-29T16:11:17;17.30;37.90
18287;DHT22;9269;50.838;12.094;2022-09-29T16:13:53;17.20;37.80
18287;DHT22;9269;50.838;12.094;2022-09-29T16:16:29;17.30;37.90
18287;DHT22;9269;50.838;12.094;2022-09-29T16:19:05;17.20;38.10
18287;DHT22;9269;50.838;12.094;2022-09-29T16:21:36;17.10;37.80
18287;DHT22;9269;50.838;12.094;2022-09-29T16:24:11;17.20;38.00
18287;DHT22;9269;50.838;12.094;2022-09-29T16:26:42;17.10;38.20
18287;DHT22;9269;50.838;12.094;2022-09-29T16:29:30;17.10;38.30
18287;DHT22;9269;50.838;12.094;2022-09-29T16:34:51;17.00;38.40
18287;DHT22;9269;50.838;12.094;2022-09-29T16:37:21;16.80;38.20
18287;DHT22;9269;50.838;12.094;2022-09-29T16:39:50;17.00;38.50